createdAt,value
2022-07-30T00:00:58.746Z,18.63
2022-07-30T00:06:01.030Z,18.50
2022-07-30T00:11:03.361Z,18.54
2022-07-30T00:16:05.694Z,18.36
2022-07-30T00:21:07.848Z,18.08
2022-07-30T00:26:13.328Z,18.00
2022-07-30T00:31:15.570Z,17.99
2022-07-30T00:36:17.879Z,17.73
2022-07-30T00:41:20.783Z,17.79
2022-07-30T00:46:23.336Z,17.66
2022-07-30T00:51:26.298Z,17.97
2022-07-30T00:56:32.732Z,17.91
2022-07-30T01:01:36.348Z,17.88
2022-07-30T01:06:40.449Z,17.90
2022-07-30T01:11:43.534Z,17.79
2022-07-30T01:16:45.758Z,17.76
2022-07-30T01:21:54.856Z,17.33
2022-07-30T01:26:58.928Z,17.22
2022-07-30T01:32:03.167Z,17.21
2022-07-30T01:37:08.738Z,17.18
2022-07-30T01:42:14.042Z,17.29
2022-07-30T01:47:19.152Z,17.33
2022-07-30T01:52:25.211Z,17.11
2022-07-30T01:57:29.912Z,17.10
2022-07-30T02:02:32.296Z,17.08
2022-07-30T02:07:46.200Z,17.10
2022-07-30T02:12:55.635Z,17.10
2022-07-30T02:18:18.609Z,17.00
2022-07-30T02:23:28.571Z,17.08
2022-07-30T02:28:35.298Z,16.96
2022-07-30T02:33:48.853Z,16.93
2022-07-30T02:38:52.805Z,16.69
2022-07-30T02:43:56.388Z,16.75
2022-07-30T02:48:59.569Z,16.79
2022-07-30T02:54:04.186Z,16.94
2022-07-30T02:59:07.361Z,16.61
2022-07-30T03:04:11.315Z,16.69
2022-07-30T03:09:16.881Z,16.71
2022-07-30T03:14:19.363Z,16.64
2022-07-30T03:19:24.424Z,16.56
2022-07-30T03:24:28.077Z,16.55
2022-07-30T03:29:32.105Z,16.54
2022-07-30T03:34:35.614Z,16.56
2022-07-30T03:39:38.827Z,16.69
2022-07-30T03:44:42.209Z,16.72
2022-07-30T03:49:44.581Z,16.41
2022-07-30T03:54:47.740Z,16.54
2022-07-30T03:59:56.256Z,16.54
2022-07-30T04:04:58.734Z,16.76
2022-07-30T04:10:00.893Z,16.84
2022-07-30T04:16:37.424Z,17.00
2022-07-30T04:20:52.320Z,17.17
2022-07-30T04:25:56.244Z,17.25
2022-07-30T04:30:59.845Z,17.19
2022-07-30T04:36:07.216Z,17.19
2022-07-30T04:41:11.721Z,17.21
2022-07-30T04:46:34.073Z,17.37
2022-07-30T04:51:38.699Z,17.45
2022-07-30T04:56:42.691Z,17.58
2022-07-30T05:01:59.066Z,17.77
2022-07-30T05:07:03.078Z,18.39
2022-07-30T05:12:05.769Z,19.31
2022-07-30T05:17:08.294Z,20.29
2022-07-30T05:22:11.209Z,21.21
2022-07-30T05:27:13.764Z,22.07
2022-07-30T05:32:16.006Z,22.78
2022-07-30T05:37:20.031Z,23.34
2022-07-30T05:42:22.190Z,24.12
2022-07-30T05:47:27.763Z,24.41
2022-07-30T05:52:30.583Z,25.05
2022-07-30T05:57:42.296Z,25.49
2022-07-30T06:02:45.211Z,25.74
2022-07-30T06:08:07.823Z,26.45
2022-07-30T06:13:10.287Z,26.72
2022-07-30T06:18:28.484Z,27.33
2022-07-30T06:23:31.094Z,27.82
2022-07-30T06:28:53.036Z,28.91
2022-07-30T06:34:02.190Z,33.40
2022-07-30T06:39:10.234Z,36.07
2022-07-30T06:44:38.696Z,37.37
2022-07-30T06:49:56.860Z,38.92
2022-07-30T06:55:03.040Z,40.28
2022-07-30T07:00:27.659Z,40.60
2022-07-30T07:05:32.361Z,40.78
2022-07-30T07:10:34.719Z,40.08
2022-07-30T07:16:06.375Z,39.52
2022-07-30T07:21:10.801Z,37.89
2022-07-30T07:26:13.358Z,37.63
2022-07-30T07:32:05.642Z,36.51
2022-07-30T07:36:38.167Z,36.47
2022-07-30T07:41:49.346Z,37.09
2022-07-30T07:46:57.722Z,36.76
2022-07-30T07:52:05.432Z,37.51
2022-07-30T07:57:10.313Z,34.98
2022-07-30T08:02:16.652Z,36.24
2022-07-30T08:07:19.009Z,36.57
2022-07-30T08:12:39.929Z,36.92
2022-07-30T08:18:00.659Z,35.15
2022-07-30T08:23:19.428Z,35.77
2022-07-30T08:28:36.583Z,35.50
2022-07-30T08:33:42.037Z,36.15
2022-07-30T08:38:44.443Z,36.40
2022-07-30T08:43:50.411Z,36.64
2022-07-30T08:48:55.439Z,36.61
2022-07-30T08:54:01.315Z,36.96
2022-07-30T08:59:05.729Z,37.03
2022-07-30T09:04:08.632Z,35.54
2022-07-30T09:09:11.194Z,35.50
2022-07-30T09:14:15.453Z,35.80
2022-07-30T09:19:24.427Z,35.17
2022-07-30T09:24:42.379Z,35.76
2022-07-30T09:30:08.753Z,35.66
2022-07-30T09:35:43.620Z,36.30
2022-07-30T09:40:53.201Z,36.21
2022-07-30T09:46:22.953Z,37.39
2022-07-30T09:51:59.433Z,36.92
2022-07-30T09:57:23.062Z,36.71
2022-07-30T10:02:33.179Z,35.68
2022-07-30T10:08:01.097Z,34.92
2022-07-30T10:13:07.648Z,35.56
2022-07-30T10:18:11.050Z,36.41
2022-07-30T10:23:33.564Z,35.20
2022-07-30T10:28:57.238Z,34.71
2022-07-30T10:34:00.681Z,35.60
2022-07-30T10:39:03.831Z,36.47
2022-07-30T10:44:35.139Z,34.99
2022-07-30T10:49:41.134Z,35.42
2022-07-30T10:54:47.613Z,35.76
2022-07-30T10:59:53.270Z,35.57
2022-07-30T11:05:32.580Z,36.71
2022-07-30T11:10:43.971Z,36.65
2022-07-30T11:15:57.009Z,36.79
2022-07-30T11:21:21.458Z,36.89
2022-07-30T11:26:41.138Z,36.73
2022-07-30T11:31:56.980Z,37.41
2022-07-30T11:37:18.922Z,36.85
2022-07-30T11:42:36.435Z,38.42
2022-07-30T11:47:38.870Z,39.28
2022-07-30T11:52:41.084Z,39.32
2022-07-30T11:57:45.732Z,39.37
2022-07-30T12:08:00.216Z,39.66
2022-07-30T12:13:14.837Z,38.59
2022-07-30T12:18:27.930Z,37.44
2022-07-30T12:23:31.837Z,34.51
2022-07-30T12:28:36.071Z,34.40
2022-07-30T12:33:42.103Z,34.38
2022-07-30T12:38:49.111Z,33.91
2022-07-30T12:43:58.498Z,34.21
2022-07-30T12:49:19.076Z,33.85
2022-07-30T12:54:24.997Z,33.10
2022-07-30T12:59:27.921Z,33.40
2022-07-30T13:04:31.901Z,33.60
2022-07-30T13:09:35.626Z,33.60
2022-07-30T13:14:38.235Z,33.02
2022-07-30T13:19:40.513Z,33.10
2022-07-30T13:24:44.111Z,33.16
2022-07-30T13:29:46.294Z,32.95
2022-07-30T13:34:49.201Z,33.32
2022-07-30T13:39:51.534Z,32.88
2022-07-30T13:44:53.821Z,32.95
2022-07-30T13:49:56.286Z,33.04
2022-07-30T13:54:58.432Z,33.41
2022-07-30T14:00:00.582Z,33.14
2022-07-30T14:05:09.667Z,32.92
2022-07-30T14:10:12.120Z,33.23
2022-07-30T14:15:17.725Z,32.80
2022-07-30T14:20:21.480Z,32.69
2022-07-30T14:25:23.912Z,32.53
2022-07-30T14:30:26.135Z,32.65
2022-07-30T14:35:28.273Z,32.48
2022-07-30T14:40:33.032Z,32.29
2022-07-30T14:45:36.735Z,32.53
2022-07-30T14:51:11.315Z,32.81
2022-07-30T14:56:05.017Z,32.55
2022-07-30T15:01:15.732Z,32.57
2022-07-30T15:06:19.045Z,32.32
2022-07-30T15:11:21.902Z,32.22
2022-07-30T15:16:24.577Z,32.04
2022-07-30T15:21:27.108Z,31.84
2022-07-30T15:26:29.326Z,31.83
2022-07-30T15:31:31.547Z,31.84
2022-07-30T15:36:33.801Z,31.90
2022-07-30T15:41:37.170Z,31.92
2022-07-30T15:46:39.425Z,31.77
2022-07-30T15:51:47.817Z,31.84
2022-07-30T15:56:51.161Z,31.72
2022-07-30T16:01:53.605Z,31.53
2022-07-30T16:06:57.418Z,31.45
2022-07-30T16:12:00.101Z,31.41
2022-07-30T16:17:02.380Z,31.17
2022-07-30T16:22:14.831Z,30.92
2022-07-30T16:27:18.445Z,30.67
2022-07-30T16:32:20.761Z,30.49
2022-07-30T16:37:22.941Z,30.25
2022-07-30T16:42:25.204Z,29.93
2022-07-30T16:47:34.287Z,29.64
2022-07-30T16:52:37.965Z,29.21
2022-07-30T16:57:40.309Z,28.64
2022-07-30T17:02:42.503Z,28.16
2022-07-30T17:07:44.681Z,27.43
2022-07-30T17:12:50.913Z,27.01
2022-07-30T17:17:56.164Z,26.63
2022-07-30T17:23:01.596Z,26.14
2022-07-30T17:28:04.469Z,25.49
2022-07-30T17:33:06.770Z,25.47
2022-07-30T17:38:08.994Z,25.10
2022-07-30T17:43:14.027Z,24.90
2022-07-30T17:48:18.310Z,24.58
2022-07-30T17:53:20.609Z,24.36
2022-07-30T17:58:22.904Z,23.94
2022-07-30T18:03:25.753Z,23.96
2022-07-30T18:08:32.658Z,23.56
2022-07-30T18:13:35.141Z,23.29
2022-07-30T18:18:38.556Z,23.03
2022-07-30T18:23:40.900Z,22.77
2022-07-30T18:28:43.588Z,22.68
2022-07-30T18:33:45.864Z,22.30
2022-07-30T18:38:49.898Z,22.29
2022-07-30T18:43:56.069Z,22.12
2022-07-30T18:49:10.642Z,22.07
2022-07-30T18:54:20.666Z,21.92
2022-07-30T18:59:22.900Z,21.80
2022-07-30T19:04:25.107Z,21.80
2022-07-30T19:09:27.863Z,21.70
2022-07-30T19:14:30.109Z,21.48
2022-07-30T19:19:32.263Z,21.59
2022-07-30T19:24:34.640Z,21.50
2022-07-30T19:29:37.222Z,21.37
2022-07-30T19:34:40.749Z,21.49
2022-07-30T19:40:06.390Z,21.36
2022-07-30T19:45:11.715Z,21.35
2022-07-30T19:50:14.156Z,21.14
2022-07-30T19:55:17.136Z,21.01
2022-07-30T20:00:35.672Z,21.19
2022-07-30T20:05:57.456Z,21.12
2022-07-30T20:11:02.673Z,21.33
2022-07-30T20:16:11.382Z,21.33
2022-07-30T20:21:16.197Z,21.46
2022-07-30T20:26:18.973Z,22.04
2022-07-30T20:31:21.719Z,22.08
2022-07-30T20:36:24.140Z,22.38
2022-07-30T20:41:29.114Z,22.39
2022-07-30T20:46:34.303Z,22.58
2022-07-30T20:51:37.704Z,22.66
2022-07-30T20:56:39.977Z,22.90
2022-07-30T21:01:42.511Z,23.25
2022-07-30T21:06:46.118Z,23.70
2022-07-30T21:11:51.862Z,23.97
2022-07-30T21:16:56.201Z,23.92
2022-07-30T21:22:01.843Z,23.79
2022-07-30T21:27:30.005Z,23.12
2022-07-30T21:32:32.378Z,22.83
2022-07-30T21:37:37.554Z,22.56
2022-07-30T21:42:48.319Z,22.46
2022-07-30T21:47:57.767Z,22.04
2022-07-30T21:53:02.132Z,21.63
2022-07-30T21:58:05.728Z,21.06
2022-07-30T22:03:15.985Z,20.86
2022-07-30T22:08:30.770Z,20.91
2022-07-30T22:13:34.928Z,20.95
2022-07-30T22:18:53.742Z,20.85
2022-07-30T22:23:58.415Z,21.05
2022-07-30T22:29:04.164Z,20.95
2022-07-30T22:34:11.297Z,20.75
2022-07-30T22:39:13.990Z,20.78
2022-07-30T22:44:16.144Z,20.83
2022-07-30T22:49:23.896Z,20.80
2022-07-30T22:54:29.157Z,20.78
2022-07-30T22:59:57.976Z,20.68
2022-07-30T23:04:53.669Z,20.66
2022-07-30T23:09:55.926Z,20.71
2022-07-30T23:14:59.109Z,20.68
2022-07-30T23:20:01.406Z,20.70
2022-07-30T23:25:06.487Z,20.68
2022-07-30T23:30:10.452Z,20.65
2022-07-30T23:35:12.824Z,20.63
2022-07-30T23:40:15.502Z,20.74
2022-07-30T23:45:18.681Z,20.55
2022-07-30T23:50:21.066Z,20.33
2022-07-30T23:55:23.677Z,20.70
